Time;durP1;ratioP1;P1;durP2;ratioP2;P2;SDS_P1;SDS_P2;PMS_P1;PMS_P2;Temp;Humidity;BMP_temperature;BMP_pressure;BME280_temperature;BME280_humidity;BME280_pressure;Samples;Min_cycle;Max_cycle;Signal;HPM_P1;HPM_P2
2023/09/09 00:00:00;;;;;;;0.90;0.85;;;;;;;;;;1041387;28;20068;-73
2023/09/09 00:00:31;;;;;;;0.43;0.43;;;;;;;;;;1041986;28;20029;-74
2023/09/09 00:01:02;;;;;;;0.13;0.13;;;;;;;;;;1042838;28;20021;-73
2023/09/09 00:01:33;;;;;;;0.00;0.00;;;;;;;;;;1042006;28;20029;-74
2023/09/09 00:02:03;;;;;;;0.20;0.20;;;;;;;;;;1042018;28;20092;-74
2023/09/09 00:02:34;;;;;;;1.23;1.13;;;;;;;;;;1042319;28;20124;-74
2023/09/09 00:03:04;;;;;;;0.10;0.10;;;;;;;;;;1043745;28;20181;-74
2023/09/09 00:03:35;;;;;;;0.00;0.00;;;;;;;;;;1044062;28;20083;-74
2023/09/09 00:04:05;;;;;;;0.28;0.28;;;;;;;;;;1043913;28;20516;-74
2023/09/09 00:04:36;;;;;;;0.38;0.38;;;;;;;;;;1043957;28;20127;-73
2023/09/09 00:05:06;;;;;;;0.20;0.20;;;;;;;;;;1042505;28;20024;-73
2023/09/09 00:05:37;;;;;;;0.80;0.63;;;;;;;;;;1041081;28;20550;-73
2023/09/09 00:06:10;;;;;;;0.30;0.30;;;;;;;;;;1040728;28;20079;-73
2023/09/09 00:06:40;;;;;;;1.30;1.20;;;;;;;;;;1042154;28;20029;-73
2023/09/09 00:07:11;;;;;;;0.00;0.00;;;;;;;;;;1042103;28;20104;-73
2023/09/09 00:07:42;;;;;;;0.68;0.55;;;;;;;;;;1040682;28;20074;-73
2023/09/09 00:08:12;;;;;;;1.13;1.02;;;;;;;;;;1044943;28;20052;-73
2023/09/09 00:08:43;;;;;;;0.38;0.38;;;;;;;;;;1046232;28;20086;-73
2023/09/09 00:09:16;;;;;;;0.35;0.35;;;;;;;;;;1046289;28;20017;-73
2023/09/09 00:09:47;;;;;;;0.95;0.90;;;;;;;;;;1045708;28;20531;-72
2023/09/09 00:10:17;;;;;;;0.93;0.77;;;;;;;;;;1042583;28;20036;-72
2023/09/09 00:10:48;;;;;;;1.08;0.75;;;;;;;;;;1041777;28;20111;-73
2023/09/09 00:11:18;;;;;;;0.00;0.00;;;;;;;;;;1041437;28;20103;-74
2023/09/09 00:11:49;;;;;;;0.20;0.20;;;;;;;;;;1041617;28;20172;-74
2023/09/09 00:12:19;;;;;;;0.30;0.30;;;;;;;;;;1042150;28;20033;-74
2023/09/09 00:12:49;;;;;;;1.88;1.63;;;;;;;;;;1042627;28;20374;-74
2023/09/09 00:13:20;;;;;;;0.70;0.50;;;;;;;;;;1045738;28;20608;-74
2023/09/09 00:13:51;;;;;;;1.10;1.00;;;;;;;;;;1046182;28;20421;-74
2023/09/09 00:14:22;;;;;;;0.32;0.32;;;;;;;;;;1041954;28;20036;-73
2023/09/09 00:14:53;;;;;;;0.70;0.70;;;;;;;;;;1042209;28;20446;-74
2023/09/09 00:15:23;;;;;;;0.20;0.20;;;;;;;;;;1042056;28;20056;-73
2023/09/09 00:15:54;;;;;;;0.65;0.65;;;;;;;;;;1038968;28;20100;-73
2023/09/09 00:16:24;;;;;;;3.42;0.80;;;;;;;;;;1044100;28;20043;-74
2023/09/09 00:16:55;;;;;;;0.25;0.25;;;;;;;;;;1044122;28;20047;-74
2023/09/09 00:17:25;;;;;;;9.98;1.35;;;;;;;;;;1043707;28;20029;-74
2023/09/09 00:17:56;;;;;;;0.08;0.08;;;;;;;;;;1042013;28;20017;-74
2023/09/09 00:18:26;;;;;;;0.10;0.10;;;;;;;;;;1046093;28;20824;-74
2023/09/09 00:18:57;;;;;;;0.80;0.80;;;;;;;;;;1046418;28;20036;-73
2023/09/09 00:19:28;;;;;;;0.85;0.85;;;;;;;;;;1046076;28;20035;-73
2023/09/09 00:19:58;;;;;;;0.82;0.82;;;;;;;;;;1045103;28;20025;-73
2023/09/09 00:20:29;;;;;;;0.10;0.10;;;;;;;;;;1042521;28;20172;-74
2023/09/09 00:21:00;;;;;;;0.10;0.10;;;;;;;;;;1041710;28;20494;-74
2023/09/09 00:21:30;;;;;;;5.05;1.00;;;;;;;;;;1042254;28;20044;-73
2023/09/09 00:22:01;;;;;;;0.43;0.43;;;;;;;;;;1042392;28;20025;-73
2023/09/09 00:22:31;;;;;;;1.52;1.42;;;;;;;;;;1042321;28;20021;-73
2023/09/09 00:23:12;;;;;;;0.43;0.43;;;;;;;;;;1041169;28;20025;-73
2023/09/09 00:23:43;;;;;;;0.60;0.60;;;;;;;;;;1041629;28;20016;-73
2023/09/09 00:24:13;;;;;;;0.65;0.63;;;;;;;;;;1041569;28;20388;-73
2023/09/09 00:24:44;;;;;;;1.35;1.27;;;;;;;;;;1041751;28;20152;-74
2023/09/09 00:25:14;;;;;;;0.43;0.43;;;;;;;;;;1042083;28;20030;-73
2023/09/09 00:25:45;;;;;;;0.38;0.38;;;;;;;;;;1040423;28;20076;-74
2023/09/09 00:26:15;;;;;;;0.57;0.57;;;;;;;;;;1040955;28;20048;-73
2023/09/09 00:26:45;;;;;;;1.10;1.08;;;;;;;;;;1042420;28;20104;-73
2023/09/09 00:27:16;;;;;;;0.10;0.10;;;;;;;;;;1046258;28;20546;-73
2023/09/09 00:27:46;;;;;;;0.13;0.13;;;;;;;;;;1045827;28;20445;-74
2023/09/09 00:28:17;;;;;;;0.65;0.65;;;;;;;;;;1046130;28;20091;-73
2023/09/09 00:28:47;;;;;;;0.43;0.43;;;;;;;;;;1045729;28;20074;-72
2023/09/09 00:29:18;;;;;;;1.10;1.00;;;;;;;;;;1041457;28;20067;-72
2023/09/09 00:29:48;;;;;;;0.95;0.65;;;;;;;;;;1036854;28;20524;-73
2023/09/09 00:30:19;;;;;;;0.28;0.25;;;;;;;;;;1037067;28;20597;-73
2023/09/09 00:30:49;;;;;;;1.42;0.68;;;;;;;;;;1038017;28;20566;-73
2023/09/09 00:31:20;;;;;;;0.55;0.55;;;;;;;;;;1038823;28;20435;-73
2023/09/09 00:31:50;;;;;;;0.32;0.32;;;;;;;;;;1041261;28;20396;-73
2023/09/09 00:32:21;;;;;;;0.13;0.13;;;;;;;;;;1042171;28;20573;-73
2023/09/09 00:32:51;;;;;;;1.35;1.25;;;;;;;;;;1041621;28;20024;-73
2023/09/09 00:33:22;;;;;;;0.10;0.10;;;;;;;;;;1041991;28;20043;-73
2023/09/09 00:33:53;;;;;;;2.05;1.13;;;;;;;;;;1042013;28;20021;-73
2023/09/09 00:34:23;;;;;;;0.75;0.75;;;;;;;;;;1042396;28;20028;-73
2023/09/09 00:34:53;;;;;;;0.10;0.10;;;;;;;;;;1042438;28;20028;-73
2023/09/09 00:35:24;;;;;;;0.35;0.35;;;;;;;;;;1042220;28;20486;-73
2023/09/09 00:35:58;;;;;;;5.03;1.20;;;;;;;;;;1041030;28;20473;-73
2023/09/09 00:36:28;;;;;;;0.30;0.30;;;;;;;;;;1041054;28;20016;-73
2023/09/09 00:36:59;;;;;;;0.85;0.85;;;;;;;;;;1045737;28;20378;-73
2023/09/09 00:37:29;;;;;;;0.10;0.10;;;;;;;;;;1045622;28;20031;-73
2023/09/09 00:38:00;;;;;;;9.80;1.35;;;;;;;;;;1045809;28;20017;-73
2023/09/09 00:38:30;;;;;;;2.38;1.38;;;;;;;;;;1045732;28;20037;-73
2023/09/09 00:39:03;;;;;;;1.33;0.80;;;;;;;;;;1045739;28;20045;-73
2023/09/09 00:39:34;;;;;;;0.25;0.25;;;;;;;;;;1045685;28;20477;-74
2023/09/09 00:40:05;;;;;;;0.93;0.73;;;;;;;;;;1044705;28;20024;-74
2023/09/09 00:40:35;;;;;;;3.80;1.92;;;;;;;;;;1045339;28;20033;-74
2023/09/09 00:41:16;;;;;;;1.27;0.35;;;;;;;;;;1043670;28;20106;-74
2023/09/09 00:41:46;;;;;;;0.17;0.17;;;;;;;;;;1041956;28;20021;-74
2023/09/09 00:42:16;;;;;;;0.50;0.50;;;;;;;;;;1044001;28;20107;-73
2023/09/09 00:42:47;;;;;;;1.00;1.00;;;;;;;;;;1042784;28;20495;-74
2023/09/09 00:43:18;;;;;;;0.47;0.35;;;;;;;;;;1042329;28;20473;-74
2023/09/09 00:43:48;;;;;;;0.98;0.55;;;;;;;;;;1040913;28;20021;-74
2023/09/09 00:44:19;;;;;;;0.10;0.10;;;;;;;;;;1041861;28;20128;-74
2023/09/09 00:44:49;;;;;;;2.50;2.30;;;;;;;;;;1037920;28;20539;-74
2023/09/09 00:45:22;;;;;;;2.20;2.03;;;;;;;;;;1036852;28;20056;-74
2023/09/09 00:45:52;;;;;;;0.75;0.75;;;;;;;;;;1041763;28;20044;-73
2023/09/09 00:46:24;;;;;;;2.67;1.67;;;;;;;;;;1042178;28;20489;-73
2023/09/09 00:46:54;;;;;;;44.38;1.33;;;;;;;;;;1042387;28;20131;-73
2023/09/09 00:47:25;;;;;;;0.77;0.75;;;;;;;;;;1040997;28;20021;-74
2023/09/09 00:47:56;;;;;;;4.78;0.85;;;;;;;;;;1043691;28;20031;-74
2023/09/09 00:48:26;;;;;;;0.90;0.90;;;;;;;;;;1043951;28;20052;-74
2023/09/09 00:49:00;;;;;;;0.10;0.10;;;;;;;;;;1044064;28;20512;-73
2023/09/09 00:49:30;;;;;;;0.85;0.85;;;;;;;;;;1042514;28;20142;-73
2023/09/09 00:50:03;;;;;;;13.68;1.20;;;;;;;;;;1042323;28;20018;-73
2023/09/09 00:50:34;;;;;;;0.30;0.30;;;;;;;;;;1042466;28;20033;-73
2023/09/09 00:51:05;;;;;;;0.10;0.10;;;;;;;;;;1042239;28;20017;-73
2023/09/09 00:51:37;;;;;;;0.85;0.85;;;;;;;;;;1042307;28;20094;-73
2023/09/09 00:52:08;;;;;;;0.10;0.10;;;;;;;;;;1041115;28;20020;-74
2023/09/09 00:52:38;;;;;;;0.50;0.50;;;;;;;;;;1041840;28;20060;-74
2023/09/09 00:53:09;;;;;;;2.75;0.80;;;;;;;;;;1041566;28;20119;-73
2023/09/09 00:53:40;;;;;;;1.67;1.58;;;;;;;;;;1041767;28;20037;-73
2023/09/09 00:54:11;;;;;;;2.00;1.25;;;;;;;;;;1042028;28;20393;-73
2023/09/09 00:54:41;;;;;;;0.70;0.70;;;;;;;;;;1042385;28;20021;-74
2023/09/09 00:55:12;;;;;;;0.20;0.20;;;;;;;;;;1042370;28;20461;-74
2023/09/09 00:55:43;;;;;;;0.43;0.43;;;;;;;;;;1042113;28;20020;-74
2023/09/09 00:56:14;;;;;;;3.53;0.52;;;;;;;;;;1040909;28;20484;-73
2023/09/09 00:56:44;;;;;;;0.38;0.38;;;;;;;;;;1041927;28;20155;-73
2023/09/09 00:57:16;;;;;;;0.98;0.70;;;;;;;;;;1042003;28;20120;-74
2023/09/09 00:57:46;;;;;;;0.35;0.35;;;;;;;;;;1040822;28;20107;-74
2023/09/09 00:58:17;;;;;;;22.83;2.15;;;;;;;;;;1042007;28;20025;-73
2023/09/09 00:58:47;;;;;;;0.63;0.63;;;;;;;;;;1040993;28;20032;-73
2023/09/09 00:59:18;;;;;;;1.50;1.38;;;;;;;;;;1041457;28;20029;-73
2023/09/09 00:59:48;;;;;;;0.52;0.52;;;;;;;;;;1041066;28;20021;-74
2023/09/09 01:00:19;;;;;;;1.15;1.15;;;;;;;;;;1040515;28;20500;-74
2023/09/09 01:00:49;;;;;;;4.85;0.77;;;;;;;;;;1041788;28;20520;-73
2023/09/09 01:01:20;;;;;;;3.53;0.75;;;;;;;;;;1042100;28;20472;-74
2023/09/09 01:01:50;;;;;;;1.90;1.75;;;;;;;;;;1041831;28;20031;-73
2023/09/09 01:02:20;;;;;;;2.03;1.83;;;;;;;;;;1040932;28;20021;-73
2023/09/09 01:02:51;;;;;;;0.50;0.50;;;;;;;;;;1041726;28;20033;-73
2023/09/09 01:03:22;;;;;;;0.60;0.60;;;;;;;;;;1042010;28;20021;-74
2023/09/09 01:03:53;;;;;;;1.40;1.13;;;;;;;;;;1039143;28;20025;-73
2023/09/09 01:04:23;;;;;;;0.00;0.00;;;;;;;;;;1045935;28;20063;-73
2023/09/09 01:04:54;;;;;;;0.20;0.20;;;;;;;;;;1044733;28;20025;-73
2023/09/09 01:05:25;;;;;;;0.30;0.30;;;;;;;;;;1043353;28;20024;-73
2023/09/09 01:05:56;;;;;;;1.52;1.38;;;;;;;;;;1043654;28;20111;-73
2023/09/09 01:06:26;;;;;;;0.60;0.30;;;;;;;;;;1039158;28;20051;-73
2023/09/09 01:07:00;;;;;;;0.45;0.40;;;;;;;;;;1042248;28;20104;-73
2023/09/09 01:07:44;;;;;;;0.10;0.10;;;;;;;;;;1040909;28;20025;-73
2023/09/09 01:08:24;;;;;;;1.80;1.63;;;;;;;;;;1043120;28;20576;-73
2023/09/09 01:08:54;;;;;;;0.85;0.63;;;;;;;;;;1041649;28;20540;-73
2023/09/09 01:09:25;;;;;;;2.58;1.83;;;;;;;;;;1040132;28;20035;-74
2023/09/09 01:09:55;;;;;;;2.35;1.55;;;;;;;;;;1041897;28;20033;-74
2023/09/09 01:10:25;;;;;;;0.30;0.30;;;;;;;;;;1042328;28;20028;-73
2023/09/09 01:10:56;;;;;;;3.92;1.80;;;;;;;;;;1037589;28;20017;-74
2023/09/09 01:11:27;;;;;;;2.45;1.90;;;;;;;;;;1041745;28;20029;-73
2023/09/09 01:12:00;;;;;;;1.48;1.35;;;;;;;;;;1043639;28;20029;-73
2023/09/09 01:12:30;;;;;;;3.53;1.08;;;;;;;;;;1041794;28;20528;-73
2023/09/09 01:13:01;;;;;;;0.73;0.65;;;;;;;;;;1040396;28;20504;-74
2023/09/09 01:13:31;;;;;;;0.60;0.60;;;;;;;;;;1042388;28;20103;-73
2023/09/09 01:14:02;;;;;;;1.40;1.30;;;;;;;;;;1042113;28;20512;-73
2023/09/09 01:14:32;;;;;;;2.10;1.77;;;;;;;;;;1041203;28;20060;-73
2023/09/09 01:15:05;;;;;;;26.85;2.95;;;;;;;;;;1040752;28;20371;-73
2023/09/09 01:15:37;;;;;;;1.45;1.35;;;;;;;;;;1040733;28;20033;-74
2023/09/09 01:16:08;;;;;;;2.30;1.30;;;;;;;;;;1040732;28;20485;-74
2023/09/09 01:16:39;;;;;;;1.70;1.58;;;;;;;;;;1041130;28;20067;-74
2023/09/09 01:17:10;;;;;;;3.03;1.13;;;;;;;;;;1041432;28;20465;-74
2023/09/09 01:17:41;;;;;;;0.70;0.50;;;;;;;;;;1042805;28;20025;-73
2023/09/09 01:18:12;;;;;;;4.50;0.60;;;;;;;;;;1041301;28;20039;-75
2023/09/09 01:18:42;;;;;;;0.20;0.20;;;;;;;;;;1041806;28;20063;-73
2023/09/09 01:19:15;;;;;;;0.55;0.55;;;;;;;;;;1041707;28;20112;-73
2023/09/09 01:19:46;;;;;;;0.63;0.50;;;;;;;;;;1040463;28;20022;-73
2023/09/09 01:20:19;;;;;;;0.77;0.77;;;;;;;;;;1040115;28;20485;-73
2023/09/09 01:20:52;;;;;;;0.90;0.80;;;;;;;;;;1041336;28;20021;-72
2023/09/09 01:21:24;;;;;;;0.60;0.60;;;;;;;;;;1040819;28;20140;-74
2023/09/09 01:22:00;;;;;;;1.70;1.60;;;;;;;;;;1043180;28;20458;-74
2023/09/09 01:22:35;;;;;;;0.63;0.52;;;;;;;;;;1040083;28;20033;-74
2023/09/09 01:23:06;;;;;;;0.55;0.38;;;;;;;;;;1039011;28;20028;-75
2023/09/09 01:23:37;;;;;;;0.57;0.57;;;;;;;;;;1040353;28;20070;-75
2023/09/09 01:24:07;;;;;;;0.10;0.10;;;;;;;;;;1041614;28;20370;-75
2023/09/09 01:24:40;;;;;;;5.85;1.05;;;;;;;;;;1040349;28;20120;-75
2023/09/09 01:25:11;;;;;;;0.93;0.40;;;;;;;;;;1041571;28;20078;-74
2023/09/09 01:25:41;;;;;;;1.38;1.23;;;;;;;;;;1040329;28;20021;-74
2023/09/09 01:26:12;;;;;;;1.90;1.50;;;;;;;;;;1040936;28;20656;-74
2023/09/09 01:26:45;;;;;;;4.03;1.52;;;;;;;;;;1039731;28;20029;-74
2023/09/09 01:27:16;;;;;;;0.77;0.70;;;;;;;;;;1037357;28;20043;-74
2023/09/09 01:27:46;;;;;;;4.13;1.70;;;;;;;;;;1038420;28;20048;-74
2023/09/09 01:28:21;;;;;;;2.10;1.15;;;;;;;;;;1039391;28;20095;-75
2023/09/09 01:28:52;;;;;;;0.05;0.05;;;;;;;;;;1041196;28;20434;-75
2023/09/09 01:29:23;;;;;;;0.25;0.20;;;;;;;;;;1040622;28;20022;-75
2023/09/09 01:29:53;;;;;;;0.08;0.08;;;;;;;;;;1038936;28;20052;-75
2023/09/09 01:30:24;;;;;;;0.30;0.30;;;;;;;;;;1039676;28;20033;-74
2023/09/09 01:30:54;;;;;;;0.13;0.13;;;;;;;;;;1039742;28;20387;-75
2023/09/09 01:31:25;;;;;;;0.43;0.43;;;;;;;;;;1038510;28;20037;-74
2023/09/09 01:31:55;;;;;;;0.95;0.60;;;;;;;;;;1038787;28;20052;-74
2023/09/09 01:32:26;;;;;;;0.05;0.05;;;;;;;;;;1039468;28;20029;-74
2023/09/09 01:32:57;;;;;;;1.95;1.45;;;;;;;;;;1041176;28;20385;-74
2023/09/09 01:33:27;;;;;;;0.75;0.75;;;;;;;;;;1041888;28;20131;-73
2023/09/09 01:33:58;;;;;;;1.20;1.02;;;;;;;;;;1038631;28;20076;-74
2023/09/09 01:34:28;;;;;;;0.55;0.55;;;;;;;;;;1039595;28;20026;-74
2023/09/09 01:35:06;;;;;;;31.20;0.95;;;;;;;;;;1037249;28;20595;-74
2023/09/09 01:35:37;;;;;;;0.22;0.22;;;;;;;;;;1038686;28;20579;-74
2023/09/09 01:36:09;;;;;;;0.38;0.38;;;;;;;;;;1040508;28;20027;-74
2023/09/09 01:36:39;;;;;;;0.30;0.13;;;;;;;;;;1039935;28;20056;-72
2023/09/09 01:37:12;;;;;;;0.20;0.20;;;;;;;;;;1038069;28;20029;-72
2023/09/09 01:37:44;;;;;;;0.15;0.15;;;;;;;;;;1038265;28;20059;-72
2023/09/09 01:38:14;;;;;;;0.22;0.22;;;;;;;;;;1039280;28;20060;-73
2023/09/09 01:38:45;;;;;;;0.82;0.52;;;;;;;;;;1035891;28;20508;-73
2023/09/09 01:39:15;;;;;;;0.75;0.75;;;;;;;;;;1031633;28;20021;-73
2023/09/09 01:39:46;;;;;;;0.30;0.30;;;;;;;;;;1036582;28;20104;-73
2023/09/09 01:40:16;;;;;;;0.65;0.65;;;;;;;;;;1037174;28;20112;-72
2023/09/09 01:40:49;;;;;;;0.90;0.35;;;;;;;;;;1039279;28;20036;-73
2023/09/09 01:41:20;;;;;;;1.00;0.65;;;;;;;;;;1039281;28;20037;-74
2023/09/09 01:41:52;;;;;;;1.38;1.27;;;;;;;;;;1039116;28;20022;-73
2023/09/09 01:42:23;;;;;;;2.28;0.52;;;;;;;;;;1038683;28;20068;-72
2023/09/09 01:42:54;;;;;;;0.15;0.15;;;;;;;;;;1036526;28;20543;-72
2023/09/09 01:43:24;;;;;;;0.50;0.50;;;;;;;;;;1036841;28;20178;-74
2023/09/09 01:43:55;;;;;;;0.22;0.22;;;;;;;;;;1036555;28;20025;-73
2023/09/09 01:44:26;;;;;;;0.90;0.90;;;;;;;;;;1039988;28;20060;-73
2023/09/09 01:44:56;;;;;;;0.25;0.25;;;;;;;;;;1038329;28;20111;-73
2023/09/09 01:45:27;;;;;;;15.13;1.45;;;;;;;;;;1039088;28;20020;-73
2023/09/09 01:45:57;;;;;;;0.88;0.82;;;;;;;;;;1037624;28;20442;-74
2023/09/09 01:46:28;;;;;;;3.55;1.58;;;;;;;;;;1037987;28;20513;-74
2023/09/09 01:46:59;;;;;;;1.83;1.33;;;;;;;;;;1037074;28;20045;-72
2023/09/09 01:47:30;;;;;;;6.93;1.02;;;;;;;;;;1041261;28;20060;-72
2023/09/09 01:48:00;;;;;;;0.80;0.73;;;;;;;;;;1039827;28;20479;-72
2023/09/09 01:48:31;;;;;;;1.15;0.98;;;;;;;;;;1037431;28;20029;-73
2023/09/09 01:49:03;;;;;;;2.17;0.68;;;;;;;;;;1038860;28;20127;-73
2023/09/09 01:49:33;;;;;;;3.67;2.13;;;;;;;;;;1038811;28;20040;-73
2023/09/09 01:50:04;;;;;;;1.30;1.20;;;;;;;;;;1040233;28;20051;-73
2023/09/09 01:50:34;;;;;;;2.25;1.65;;;;;;;;;;1039382;28;20079;-73
2023/09/09 01:51:06;;;;;;;5.97;1.58;;;;;;;;;;1038819;28;20026;-73
2023/09/09 01:51:39;;;;;;;2.85;0.85;;;;;;;;;;1040923;28;20339;-73
2023/09/09 01:52:10;;;;;;;13.65;1.88;;;;;;;;;;1034428;28;20042;-73
2023/09/09 01:52:40;;;;;;;1.70;0.90;;;;;;;;;;1036084;28;20022;-73
2023/09/09 01:53:11;;;;;;;1.70;1.27;;;;;;;;;;1036584;28;20470;-72
2023/09/09 01:53:41;;;;;;;1.33;0.77;;;;;;;;;;1040922;28;20021;-73
2023/09/09 01:54:12;;;;;;;2.20;0.98;;;;;;;;;;1041719;28;20033;-73
2023/09/09 01:54:43;;;;;;;4.05;2.47;;;;;;;;;;1040172;28;20079;-72
2023/09/09 01:55:13;;;;;;;1.60;1.50;;;;;;;;;;1040582;28;20080;-73
2023/09/09 01:55:44;;;;;;;10.20;1.70;;;;;;;;;;1038291;28;20484;-72
2023/09/09 01:56:14;;;;;;;4.57;2.22;;;;;;;;;;1040644;28;20454;-73
2023/09/09 01:56:45;;;;;;;2.22;1.75;;;;;;;;;;1042158;28;20139;-74
2023/09/09 01:57:19;;;;;;;1.58;0.70;;;;;;;;;;1040996;28;20025;-73
2023/09/09 01:57:49;;;;;;;1.33;1.23;;;;;;;;;;1041032;28;20035;-74
2023/09/09 01:58:20;;;;;;;1.85;1.27;;;;;;;;;;1039516;28;20131;-72
2023/09/09 01:58:50;;;;;;;0.30;0.30;;;;;;;;;;1041519;28;20555;-72
2023/09/09 01:59:21;;;;;;;2.80;2.53;;;;;;;;;;1040741;28;20098;-72
2023/09/09 01:59:51;;;;;;;2.60;1.60;;;;;;;;;;1040891;28;20022;-73
2023/09/09 02:00:22;;;;;;;0.43;0.43;;;;;;;;;;1041359;28;20115;-74
2023/09/09 02:00:53;;;;;;;1.67;1.20;;;;;;;;;;1040432;28;20028;-72
2023/09/09 02:01:23;;;;;;;2.10;1.23;;;;;;;;;;1037310;28;20104;-74
2023/09/09 02:01:53;;;;;;;0.82;0.80;;;;;;;;;;1039601;28;20026;-72
2023/09/09 02:02:24;;;;;;;3.22;1.40;;;;;;;;;;1041005;28;20513;-74
2023/09/09 02:02:55;;;;;;;2.08;1.95;;;;;;;;;;1041201;28;20023;-72
2023/09/09 02:03:25;;;;;;;2.10;1.00;;;;;;;;;;1040440;28;20136;-73
2023/09/09 02:03:56;;;;;;;3.65;2.53;;;;;;;;;;1040750;28;20033;-72
2023/09/09 02:04:26;;;;;;;3.17;1.98;;;;;;;;;;1040373;28;20025;-74
2023/09/09 02:04:57;;;;;;;3.58;2.40;;;;;;;;;;1036741;28;20104;-73
2023/09/09 02:05:27;;;;;;;3.95;0.60;;;;;;;;;;1034575;28;20068;-74
2023/09/09 02:05:58;;;;;;;7.05;2.08;;;;;;;;;;1038799;28;20029;-73
2023/09/09 02:06:31;;;;;;;1.27;1.27;;;;;;;;;;1037443;28;20021;-74
2023/09/09 02:07:02;;;;;;;0.68;0.52;;;;;;;;;;1035561;28;20033;-73
2023/09/09 02:07:32;;;;;;;2.28;1.65;;;;;;;;;;1039937;28;20036;-73
2023/09/09 02:08:03;;;;;;;0.93;0.63;;;;;;;;;;1040554;28;20024;-74
2023/09/09 02:08:33;;;;;;;0.40;0.40;;;;;;;;;;1040763;28;20033;-73
2023/09/09 02:09:04;;;;;;;1.90;1.25;;;;;;;;;;1040624;28;20418;-73
2023/09/09 02:09:34;;;;;;;1.70;1.02;;;;;;;;;;1040486;28;20306;-73
2023/09/09 02:10:05;;;;;;;0.98;0.93;;;;;;;;;;1038996;28;20108;-73
2023/09/09 02:10:36;;;;;;;2.50;1.38;;;;;;;;;;1038628;28;20097;-74
2023/09/09 02:11:07;;;;;;;3.40;1.63;;;;;;;;;;1033853;28;20026;-73
2023/09/09 02:11:37;;;;;;;2.88;0.98;;;;;;;;;;1032242;28;20034;-73
2023/09/09 02:12:08;;;;;;;14.15;2.38;;;;;;;;;;1037705;28;20036;-73
2023/09/09 02:12:38;;;;;;;1.70;1.08;;;;;;;;;;1037147;28;20044;-73
2023/09/09 02:13:09;;;;;;;0.82;0.82;;;;;;;;;;1038691;28;20025;-74
2023/09/09 02:13:40;;;;;;;2.92;0.93;;;;;;;;;;1037366;28;20049;-74
2023/09/09 02:14:10;;;;;;;14.05;1.30;;;;;;;;;;1038474;28;20013;-74
2023/09/09 02:14:41;;;;;;;1.85;1.65;;;;;;;;;;1043407;28;20099;-73
2023/09/09 02:15:13;;;;;;;0.60;0.60;;;;;;;;;;1042690;28;20028;-74
2023/09/09 02:15:46;;;;;;;0.50;0.40;;;;;;;;;;1042681;28;20047;-73
2023/09/09 02:16:20;;;;;;;0.45;0.45;;;;;;;;;;1044076;28;20392;-73
2023/09/09 02:16:51;;;;;;;0.68;0.68;;;;;;;;;;1038673;28;20621;-74
2023/09/09 02:17:21;;;;;;;2.17;2.05;;;;;;;;;;1035191;28;20120;-73
2023/09/09 02:17:52;;;;;;;0.45;0.40;;;;;;;;;;1036097;28;20385;-72
2023/09/09 02:18:22;;;;;;;15.63;1.83;;;;;;;;;;1033995;28;20525;-73
2023/09/09 02:18:53;;;;;;;1.50;1.25;;;;;;;;;;1032708;28;20569;-75
2023/09/09 02:19:23;;;;;;;2.55;1.17;;;;;;;;;;1035211;28;20026;-74
2023/09/09 02:19:57;;;;;;;0.98;0.95;;;;;;;;;;1031496;28;20034;-73
2023/09/09 02:20:27;;;;;;;1.00;0.90;;;;;;;;;;1034053;28;20426;-73
2023/09/09 02:20:58;;;;;;;0.47;0.47;;;;;;;;;;1040066;28;20040;-74
2023/09/09 02:21:29;;;;;;;0.52;0.52;;;;;;;;;;1039124;28;20457;-74
2023/09/09 02:21:59;;;;;;;3.72;0.63;;;;;;;;;;1040269;28;20072;-74
2023/09/09 02:22:30;;;;;;;0.68;0.65;;;;;;;;;;1038704;28;20075;-74
2023/09/09 02:23:01;;;;;;;0.93;0.93;;;;;;;;;;1039540;28;20029;-75
2023/09/09 02:23:31;;;;;;;0.38;0.38;;;;;;;;;;1033154;28;20124;-74
2023/09/09 02:24:02;;;;;;;1.90;1.33;;;;;;;;;;1036391;28;20064;-75
2023/09/09 02:24:33;;;;;;;0.73;0.73;;;;;;;;;;1030405;28;20031;-74
2023/09/09 02:25:04;;;;;;;1.25;0.40;;;;;;;;;;1032608;28;20402;-74
2023/09/09 02:25:34;;;;;;;2.38;1.08;;;;;;;;;;1032743;28;20068;-74
2023/09/09 02:26:05;;;;;;;0.32;0.32;;;;;;;;;;1031824;28;20621;-73
2023/09/09 02:26:35;;;;;;;3.20;2.30;;;;;;;;;;1036828;28;20482;-73
2023/09/09 02:27:06;;;;;;;26.25;1.45;;;;;;;;;;1030817;28;20439;-73
2023/09/09 02:27:36;;;;;;;0.88;0.85;;;;;;;;;;1037159;28;20037;-74
2023/09/09 02:28:07;;;;;;;2.10;0.85;;;;;;;;;;1039268;28;20079;-74
2023/09/09 02:28:38;;;;;;;2.83;0.75;;;;;;;;;;1039198;28;20492;-74
2023/09/09 02:29:08;;;;;;;0.17;0.17;;;;;;;;;;1038709;28;20435;-75
2023/09/09 02:29:39;;;;;;;0.20;0.20;;;;;;;;;;1039957;28;20079;-74
2023/09/09 02:30:10;;;;;;;0.57;0.57;;;;;;;;;;1039523;28;20107;-75
2023/09/09 02:30:43;;;;;;;0.63;0.63;;;;;;;;;;1040310;28;20476;-75
2023/09/09 02:31:14;;;;;;;0.68;0.68;;;;;;;;;;1038703;28;20022;-74
2023/09/09 02:31:44;;;;;;;0.10;0.10;;;;;;;;;;1039622;28;20083;-74
2023/09/09 02:32:16;;;;;;;0.22;0.22;;;;;;;;;;1040582;28;20020;-74
2023/09/09 02:32:46;;;;;;;0.57;0.55;;;;;;;;;;1040437;28;20040;-75
2023/09/09 02:33:17;;;;;;;0.45;0.30;;;;;;;;;;1040285;28;20108;-74
2023/09/09 02:33:47;;;;;;;0.20;0.20;;;;;;;;;;1040016;28;20033;-74
2023/09/09 02:34:18;;;;;;;2.50;0.77;;;;;;;;;;1035411;28;20025;-74
2023/09/09 02:34:48;;;;;;;1.08;1.08;;;;;;;;;;1033276;28;20022;-74
2023/09/09 02:35:19;;;;;;;1.10;0.40;;;;;;;;;;1035810;28;20032;-74
2023/09/09 02:35:49;;;;;;;0.30;0.30;;;;;;;;;;1036167;28;20117;-75
2023/09/09 02:36:20;;;;;;;1.70;1.38;;;;;;;;;;1035092;28;20473;-74
2023/09/09 02:37:09;;;;;;;0.63;0.50;;;;;;;;;;1040088;28;20029;-74
2023/09/09 02:37:40;;;;;;;0.17;0.17;;;;;;;;;;1040861;28;20014;-74
2023/09/09 02:38:10;;;;;;;2.78;2.55;;;;;;;;;;1037166;28;20030;-74
2023/09/09 02:38:41;;;;;;;0.40;0.40;;;;;;;;;;1039431;28;20396;-74
2023/09/09 02:39:11;;;;;;;0.63;0.63;;;;;;;;;;1040740;28;20558;-74
2023/09/09 02:39:45;;;;;;;9.30;5.18;;;;;;;;;;1039592;28;20025;-74
2023/09/09 02:40:16;;;;;;;1.10;1.08;;;;;;;;;;1040545;28;20384;-74
2023/09/09 02:40:46;;;;;;;3.10;1.25;;;;;;;;;;1041234;28;20053;-74
2023/09/09 02:41:17;;;;;;;0.50;0.50;;;;;;;;;;1041233;28;20131;-74
2023/09/09 02:41:50;;;;;;;0.30;0.30;;;;;;;;;;1041233;28;20025;-73
2023/09/09 02:42:22;;;;;;;9.75;1.08;;;;;;;;;;1039765;28;20067;-74
2023/09/09 02:42:53;;;;;;;0.28;0.28;;;;;;;;;;1037835;28;20021;-75
2023/09/09 02:43:23;;;;;;;16.88;2.05;;;;;;;;;;1039792;28;20029;-74
2023/09/09 02:43:54;;;;;;;1.35;1.25;;;;;;;;;;1042738;28;20032;-75
2023/09/09 02:44:24;;;;;;;0.20;0.20;;;;;;;;;;1040272;28;20072;-75
2023/09/09 02:44:54;;;;;;;0.68;0.57;;;;;;;;;;1042042;28;20032;-75
2023/09/09 02:45:25;;;;;;;0.47;0.47;;;;;;;;;;1038755;28;20031;-74
2023/09/09 02:45:55;;;;;;;1.65;1.02;;;;;;;;;;1038047;28;20036;-72
2023/09/09 02:46:28;;;;;;;0.55;0.55;;;;;;;;;;1035663;28;20026;-74
2023/09/09 02:46:59;;;;;;;1.98;0.65;;;;;;;;;;1036307;28;20029;-72
2023/09/09 02:47:29;;;;;;;0.28;0.28;;;;;;;;;;1039840;28;20060;-74
2023/09/09 02:48:00;;;;;;;0.30;0.30;;;;;;;;;;1039510;28;20025;-74
2023/09/09 02:48:31;;;;;;;0.47;0.47;;;;;;;;;;1043358;28;20033;-73
2023/09/09 02:49:01;;;;;;;0.40;0.40;;;;;;;;;;1036580;28;20616;-72
2023/09/09 02:49:32;;;;;;;0.77;0.50;;;;;;;;;;1037538;28;20124;-75
2023/09/09 02:50:04;;;;;;;0.75;0.70;;;;;;;;;;1034707;28;20425;-74
2023/09/09 02:50:35;;;;;;;0.35;0.28;;;;;;;;;;1030086;28;20022;-73
2023/09/09 02:51:05;;;;;;;0.30;0.30;;;;;;;;;;1035673;28;20026;-73
2023/09/09 02:51:36;;;;;;;0.98;0.77;;;;;;;;;;1033721;28;20091;-74
2023/09/09 02:52:07;;;;;;;0.85;0.70;;;;;;;;;;1037082;28;20030;-75
2023/09/09 02:52:37;;;;;;;1.23;1.15;;;;;;;;;;1040507;28;20516;-74
2023/09/09 02:53:08;;;;;;;1.05;1.05;;;;;;;;;;1038298;28;20117;-73
2023/09/09 02:53:38;;;;;;;1.83;1.38;;;;;;;;;;1038947;28;20036;-73
2023/09/09 02:54:09;;;;;;;0.13;0.13;;;;;;;;;;1038178;28;20457;-73
2023/09/09 02:54:39;;;;;;;0.15;0.15;;;;;;;;;;1038095;28;20444;-73
2023/09/09 02:55:12;;;;;;;0.20;0.20;;;;;;;;;;1036062;28;20025;-73
2023/09/09 02:55:43;;;;;;;1.20;1.10;;;;;;;;;;1038324;28;20036;-73
2023/09/09 02:56:13;;;;;;;2.00;1.27;;;;;;;;;;1037228;28;20045;-73
2023/09/09 02:56:44;;;;;;;1.17;1.13;;;;;;;;;;1038353;28;20095;-73
2023/09/09 02:57:14;;;;;;;2.88;2.45;;;;;;;;;;1034248;28;20018;-72
2023/09/09 02:57:50;;;;;;;1.08;0.98;;;;;;;;;;1035601;28;20022;-73
2023/09/09 02:58:21;;;;;;;0.80;0.80;;;;;;;;;;1036590;28;20448;-74
2023/09/09 02:58:52;;;;;;;0.35;0.28;;;;;;;;;;1038698;28;20368;-74
2023/09/09 02:59:23;;;;;;;0.75;0.70;;;;;;;;;;1037771;28;20037;-74
2023/09/09 02:59:53;;;;;;;9.43;1.13;;;;;;;;;;1040352;28;20120;-73
2023/09/09 03:00:24;;;;;;;1.50;1.40;;;;;;;;;;1034921;28;20029;-73
2023/09/09 03:01:02;;;;;;;0.22;0.20;;;;;;;;;;1037382;28;20037;-73
2023/09/09 03:01:33;;;;;;;1.90;0.85;;;;;;;;;;1035115;28;20034;-73
2023/09/09 03:02:05;;;;;;;3.60;1.33;;;;;;;;;;1034463;28;20097;-73
2023/09/09 03:02:36;;;;;;;0.43;0.43;;;;;;;;;;1040877;28;20511;-74
2023/09/09 03:03:06;;;;;;;12.95;1.65;;;;;;;;;;1041003;28;20056;-75
2023/09/09 03:03:37;;;;;;;0.43;0.43;;;;;;;;;;1038060;28;20029;-75
2023/09/09 03:04:07;;;;;;;0.00;0.00;;;;;;;;;;1040346;28;20044;-75
2023/09/09 03:04:38;;;;;;;0.32;0.32;;;;;;;;;;1040974;28;20022;-74
2023/09/09 03:05:12;;;;;;;0.38;0.38;;;;;;;;;;1038601;28;20029;-74
2023/09/09 03:05:42;;;;;;;6.22;2.03;;;;;;;;;;1042742;28;20424;-73
2023/09/09 03:06:13;;;;;;;0.95;0.95;;;;;;;;;;1043138;28;20077;-73